Terminal Aerodrome Forecast
Issued by NWS

Home | Current Version | Previous Version | Graphics & Text | Print | Product List | Glossary On
Versions: 1 2 3 4 5 6 7 8 9 10 11 12 13 14 15 16 17 18 19 20 21 22 23 24 25
000
FTUS43 KGRB 120826 AAA
TAFCWA
TAF AMD
KCWA 120826Z 1208/1306 31013G18KT P6SM SCT025 BKN035
      TEMPO 1208/1210 -SHSN
     FM121000 31011KT P6SM BKN024
     FM121400 31010G17KT P6SM SCT040
     FM122300 31004KT P6SM SCT040
      AMD LTD TO CLD VIS AND WIND TIL 121200=

USA.gov is the U.S. government's official web portal to all federal, state and local government web resources and services.